Share

Arock, OR

11:28 PM MDT on April 24, 2014 (GMT -0600)
Rome State (KREO) Elev 4049 ft | 42.59 °N, 117.86 °W | Change Station

Current weather conditions updated 36 minutes ago

Rain
Rain
47 °F
Feels Like 47 °F
N
7
Wind Variable Wind from NNE
Gusts 9 mph
Sunrise 6:53 AM
Sunset 8:42 PM
Moon Waning Crescent

Tomorrow is forecast to be Much Cooler than today. Showers ending by midday.

Pressure 29.84 in
Visibility -9999.0 miles
Clouds
Dew Point 38 °F
Humidity 71%
Rainfall 0.01 in
Snow Depth Not available.
UV Not available.
Pollen 6.80 out of 12
Air Quality Not available.
Flu Activity Sporadic
METAR KREO 250452Z AUTO 03006KT 08/03 A2987 RMK AO1 SLP105 T00830033

More Conditions Fewer Conditions

Pressure 29.84 in
Visibility -9999.0 miles
Clouds
Dew Point 38 °F
Humidity 71%
Rainfall 0.01 in
Snow Depth Not available.
UV Not available.
Pollen 6.80 out of 12
Air Quality Not available.
Flu Activity Sporadic
METAR KREO 250452Z AUTO 03006KT 08/03 A2987 RMK AO1 SLP105 T00830033

More Conditions Fewer Conditions

10-Day Weather Forecast

Almanac

Astronomy

Apr. 24, 2014 Rise Set
Actual Time 6:53 AM MDT 8:42 PM MDT
Civil Twilight 6:23 AM MDT 9:13 PM MDT
Nautical Twilight 5:46 AM MDT 9:50 PM MDT
Astronomical Twilight 5:07 AM MDT 10:30 PM MDT
Moon 4:15 AM MDT (4/24) 3:56 PM MDT (4/24)
Length of Visible Light 14h 49m
Length of Day
13h 48m
Tomorrow will be 2m 39s longer.
Waning Crescent, 19% of the Moon is Illuminated
Apr 25
Waning Crescent
Apr 29
New
May 6
First Quarter
May 14
Full
May 21
Last Quarter

Yesterday's Extremes

State Highs State Lows

Community

  • Deer in evening light
    Deer in evening light
  • Critter
    Critter
  • Jone Runs Falls
    Jone Runs Falls
  • Easter in Shenandoah National Park
    Easter in Shenandoah National Park
  • Sunset at Apalachicola Bay, Florida
    Sunset at Apalachicola Bay, Florida

WunderPhotos

Upload Photos

1,704,861 photos uploaded!

WunderBlogs® & News

Nearby

Snow Depth

Station Depth Elevation
Silvies 0 in 6900 ft
Lake Creek R.S. 0 in 5200 ft
Blue Mountain Spring 12 in 5900 ft
Starr Ridge 0 in 5300 ft
Snow Mountain 8 in 6220 ft

Coastal Water Temperatures

Place Temperature
No Stations Reporting

Earthquake Activity

City Distance Mag. Time & Date
Denio Junction, Nevada 97 miles 2.9 8:39 AM MDT
2014-04-20
Cascade, Idaho 132 miles 2.5 8:56 AM MDT
2014-04-19
Cascade, Idaho 132 miles 2.5 8:56 AM MDT
2014-04-19
Minimum magnitude displayed is 2.5.

Nearby Weather Stations

Station Location Temp. Windchill Dew Point Humidity Wind Precip. Elev Updated Type
RAWS GRASSY MOUNTAIN OR, Jordan Valley, OR 45 °F 42 °F 38 °F 75% NE  at  5 mph 0.00 in / hr 4560 ft 10:24 PM MDT MADIS
MesoWest JORDAN VALLEY CWMA , Jordan Valley, OR 44 °F 41 °F 35 °F 72% North  at  5 mph 0.00 in / hr 4507 ft 10:00 PM MDT MADIS

Show More Stations Show Fewer Stations

What do you think?

We're not finished. Please let us know what you like, what you don't like, and what you are still missing.